sensor_id;sensor_type;location;lat;lon;timestamp;pressure;altitude;pressure_sealevel;temperature;humidity
56944;BME280;42848;42.524;12.052;2022-07-21T00:01:34;96984.63;;;26.39;100.00
56944;BME280;42848;42.524;12.052;2022-07-21T00:04:00;96982.28;;;26.38;100.00
56944;BME280;42848;42.524;12.052;2022-07-21T00:06:25;96976.72;;;26.34;100.00
56944;BME280;42848;42.524;12.052;2022-07-21T00:08:51;96979.91;;;26.32;100.00
56944;BME280;42848;42.524;12.052;2022-07-21T00:11:17;96982.69;;;26.32;100.00
56944;BME280;42848;42.524;12.052;2022-07-21T00:13:43;96981.50;;;26.33;100.00
56944;BME280;42848;42.524;12.052;2022-07-21T00:16:09;96984.88;;;26.18;100.00
56944;BME280;42848;42.524;12.052;2022-07-21T00:18:35;96975.31;;;26.19;100.00
56944;BME280;42848;42.524;12.052;2022-07-21T00:21:01;96971.84;;;26.11;100.00
56944;BME280;42848;42.524;12.052;2022-07-21T00:23:27;96979.41;;;26.11;100.00
56944;BME280;42848;42.524;12.052;2022-07-21T00:25:53;96963.13;;;26.09;100.00
56944;BME280;42848;42.524;12.052;2022-07-21T00:28:20;96966.53;;;25.90;100.00
56944;BME280;42848;42.524;12.052;2022-07-21T00:30:46;96965.69;;;25.55;100.00
56944;BME280;42848;42.524;12.052;2022-07-21T00:33:12;96961.25;;;25.99;100.00
56944;BME280;42848;42.524;12.052;2022-07-21T00:35:38;96970.75;;;26.01;100.00
56944;BME280;42848;42.524;12.052;2022-07-21T00:38:04;96977.47;;;26.04;100.00
56944;BME280;42848;42.524;12.052;2022-07-21T00:40:30;96964.91;;;26.26;100.00
56944;BME280;42848;42.524;12.052;2022-07-21T00:42:57;96963.50;;;26.11;100.00
56944;BME280;42848;42.524;12.052;2022-07-21T00:45:23;96957.19;;;25.73;100.00
56944;BME280;42848;42.524;12.052;2022-07-21T00:47:48;96960.06;;;26.00;100.00
56944;BME280;42848;42.524;12.052;2022-07-21T00:50:19;96952.69;;;25.83;100.00
56944;BME280;42848;42.524;12.052;2022-07-21T00:52:46;96958.91;;;25.97;100.00
56944;BME280;42848;42.524;12.052;2022-07-21T00:55:14;96961.56;;;25.67;100.00
56944;BME280;42848;42.524;12.052;2022-07-21T00:57:41;96954.56;;;25.55;100.00
56944;BME280;42848;42.524;12.052;2022-07-21T01:00:11;96953.09;;;25.43;100.00
56944;BME280;42848;42.524;12.052;2022-07-21T01:02:38;96960.91;;;25.56;100.00
56944;BME280;42848;42.524;12.052;2022-07-21T01:05:05;96957.78;;;25.50;100.00
56944;BME280;42848;42.524;12.052;2022-07-21T01:07:32;96962.75;;;25.28;100.00
56944;BME280;42848;42.524;12.052;2022-07-21T01:09:59;96961.97;;;25.28;100.00
56944;BME280;42848;42.524;12.052;2022-07-21T01:12:24;96962.53;;;25.53;100.00
56944;BME280;42848;42.524;12.052;2022-07-21T01:14:50;96964.00;;;25.65;100.00
56944;BME280;42848;42.524;12.052;2022-07-21T01:17:17;96959.47;;;25.40;100.00
56944;BME280;42848;42.524;12.052;2022-07-21T01:19:43;96958.00;;;25.29;100.00
56944;BME280;42848;42.524;12.052;2022-07-21T01:22:09;96951.75;;;25.17;100.00
56944;BME280;42848;42.524;12.052;2022-07-21T01:24:36;96946.31;;;25.00;100.00
56944;BME280;42848;42.524;12.052;2022-07-21T01:27:02;96951.41;;;25.53;100.00
56944;BME280;42848;42.524;12.052;2022-07-21T01:29:27;96946.13;;;25.21;100.00
56944;BME280;42848;42.524;12.052;2022-07-21T01:31:53;96938.13;;;25.30;100.00
56944;BME280;42848;42.524;12.052;2022-07-21T01:34:19;96943.03;;;25.15;100.00
56944;BME280;42848;42.524;12.052;2022-07-21T01:36:45;96922.22;;;25.31;100.00
56944;BME280;42848;42.524;12.052;2022-07-21T01:39:11;96931.66;;;25.44;100.00
56944;BME280;42848;42.524;12.052;2022-07-21T01:41:56;96940.16;;;25.22;100.00
56944;BME280;42848;42.524;12.052;2022-07-21T01:44:21;96932.44;;;24.96;100.00
56944;BME280;42848;42.524;12.052;2022-07-21T01:46:50;96925.56;;;25.15;100.00
56944;BME280;42848;42.524;12.052;2022-07-21T01:49:18;96935.28;;;24.89;100.00
56944;BME280;42848;42.524;12.052;2022-07-21T01:51:44;96938.81;;;24.93;100.00
56944;BME280;42848;42.524;12.052;2022-07-21T01:54:10;96936.84;;;24.90;100.00
56944;BME280;42848;42.524;12.052;2022-07-21T01:56:37;96929.66;;;24.96;100.00
56944;BME280;42848;42.524;12.052;2022-07-21T01:59:05;96933.81;;;24.74;100.00
56944;BME280;42848;42.524;12.052;2022-07-21T02:01:31;96936.88;;;24.86;100.00
56944;BME280;42848;42.524;12.052;2022-07-21T02:04:00;96927.53;;;24.59;100.00
56944;BME280;42848;42.524;12.052;2022-07-21T02:06:26;96930.88;;;24.91;100.00
56944;BME280;42848;42.524;12.052;2022-07-21T02:08:52;96921.31;;;24.96;100.00
56944;BME280;42848;42.524;12.052;2022-07-21T02:11:19;96922.22;;;24.82;100.00
56944;BME280;42848;42.524;12.052;2022-07-21T02:13:45;96918.31;;;24.76;100.00
56944;BME280;42848;42.524;12.052;2022-07-21T02:16:12;96910.75;;;24.80;100.00
56944;BME280;42848;42.524;12.052;2022-07-21T02:18:38;96916.31;;;24.77;100.00
56944;BME280;42848;42.524;12.052;2022-07-21T02:21:04;96912.31;;;24.81;100.00
56944;BME280;42848;42.524;12.052;2022-07-21T02:23:31;96915.94;;;24.75;100.00
56944;BME280;42848;42.524;12.052;2022-07-21T02:25:57;96914.75;;;24.76;100.00
56944;BME280;42848;42.524;12.052;2022-07-21T02:28:23;96920.34;;;24.68;100.00
56944;BME280;42848;42.524;12.052;2022-07-21T02:30:50;96915.00;;;24.36;100.00
56944;BME280;42848;42.524;12.052;2022-07-21T02:33:16;96919.63;;;24.61;100.00
56944;BME280;42848;42.524;12.052;2022-07-21T02:35:43;96912.59;;;24.46;100.00
56944;BME280;42848;42.524;12.052;2022-07-21T02:38:10;96914.13;;;24.54;100.00
56944;BME280;42848;42.524;12.052;2022-07-21T02:40:37;96913.31;;;24.53;100.00
56944;BME280;42848;42.524;12.052;2022-07-21T02:43:04;96906.94;;;24.56;100.00
56944;BME280;42848;42.524;12.052;2022-07-21T02:45:31;96908.59;;;24.47;100.00
56944;BME280;42848;42.524;12.052;2022-07-21T02:47:59;96911.75;;;24.49;100.00
56944;BME280;42848;42.524;12.052;2022-07-21T02:50:29;96910.66;;;24.32;100.00
56944;BME280;42848;42.524;12.052;2022-07-21T02:53:01;96915.38;;;24.42;100.00
56944;BME280;42848;42.524;12.052;2022-07-21T02:55:27;96905.94;;;24.32;100.00
56944;BME280;42848;42.524;12.052;2022-07-21T02:58:16;96904.31;;;24.35;100.00
56944;BME280;42848;42.524;12.052;2022-07-21T03:00:44;96906.69;;;24.36;100.00
56944;BME280;42848;42.524;12.052;2022-07-21T03:03:11;96907.44;;;24.44;100.00
56944;BME280;42848;42.524;12.052;2022-07-21T03:05:38;96897.47;;;24.50;100.00
56944;BME280;42848;42.524;12.052;2022-07-21T03:08:05;96899.16;;;24.37;100.00
56944;BME280;42848;42.524;12.052;2022-07-21T03:10:31;96895.69;;;24.11;100.00
56944;BME280;42848;42.524;12.052;2022-07-21T03:12:57;96895.31;;;24.09;100.00
56944;BME280;42848;42.524;12.052;2022-07-21T03:15:22;96898.88;;;24.10;100.00
56944;BME280;42848;42.524;12.052;2022-07-21T03:17:48;96898.09;;;24.09;100.00
56944;BME280;42848;42.524;12.052;2022-07-21T03:20:14;96901.56;;;24.28;100.00
56944;BME280;42848;42.524;12.052;2022-07-21T03:22:40;96898.34;;;24.40;100.00
56944;BME280;42848;42.524;12.052;2022-07-21T03:25:07;96897.53;;;24.39;100.00
56944;BME280;42848;42.524;12.052;2022-07-21T03:27:33;96901.97;;;24.23;100.00
56944;BME280;42848;42.524;12.052;2022-07-21T03:30:05;96905.56;;;24.20;100.00
56944;BME280;42848;42.524;12.052;2022-07-21T03:32:32;96898.16;;;23.99;100.00
56944;BME280;42848;42.524;12.052;2022-07-21T03:34:58;96902.34;;;24.28;100.00
56944;BME280;42848;42.524;12.052;2022-07-21T03:37:24;96900.09;;;24.09;100.00
56944;BME280;42848;42.524;12.052;2022-07-21T03:39:50;96905.34;;;23.82;100.00
56944;BME280;42848;42.524;12.052;2022-07-21T03:42:15;96905.31;;;23.96;100.00
56944;BME280;42848;42.524;12.052;2022-07-21T03:44:41;96906.13;;;23.86;100.00
56944;BME280;42848;42.524;12.052;2022-07-21T03:47:07;96902.38;;;24.21;100.00
56944;BME280;42848;42.524;12.052;2022-07-21T03:49:33;96904.81;;;24.12;100.00
56944;BME280;42848;42.524;12.052;2022-07-21T03:51:58;96903.31;;;23.93;100.00
56944;BME280;42848;42.524;12.052;2022-07-21T03:54:24;96902.78;;;24.23;100.00
56944;BME280;42848;42.524;12.052;2022-07-21T03:56:50;96912.78;;;24.06;100.00
56944;BME280;42848;42.524;12.052;2022-07-21T03:59:15;96914.75;;;24.02;100.00
56944;BME280;42848;42.524;12.052;2022-07-21T04:01:41;96911.63;;;23.93;100.00
56944;BME280;42848;42.524;12.052;2022-07-21T04:04:07;96920.66;;;24.11;100.00
56944;BME280;42848;42.524;12.052;2022-07-21T04:06:32;96922.63;;;24.18;100.00
56944;BME280;42848;42.524;12.052;2022-07-21T04:08:58;96922.22;;;24.20;100.00
56944;BME280;42848;42.524;12.052;2022-07-21T04:11:24;96923.06;;;24.09;100.00
56944;BME280;42848;42.524;12.052;2022-07-21T04:13:49;96925.47;;;24.00;100.00
56944;BME280;42848;42.524;12.052;2022-07-21T04:16:15;96929.47;;;23.96;100.00
56944;BME280;42848;42.524;12.052;2022-07-21T04:18:41;96933.41;;;23.98;100.00
56944;BME280;42848;42.524;12.052;2022-07-21T04:21:06;96933.78;;;24.07;100.00
56944;BME280;42848;42.524;12.052;2022-07-21T04:23:32;96927.88;;;23.98;100.00
56944;BME280;42848;42.524;12.052;2022-07-21T04:25:58;96929.91;;;23.87;100.00
56944;BME280;42848;42.524;12.052;2022-07-21T04:28:24;96930.69;;;23.84;100.00
56944;BME280;42848;42.524;12.052;2022-07-21T04:30:49;96930.28;;;23.89;100.00
56944;BME280;42848;42.524;12.052;2022-07-21T04:33:15;96924.25;;;24.08;100.00
56944;BME280;42848;42.524;12.052;2022-07-21T04:35:41;96928.56;;;24.13;100.00
56944;BME280;42848;42.524;12.052;2022-07-21T04:38:08;96936.09;;;24.12;100.00
56944;BME280;42848;42.524;12.052;2022-07-21T04:40:35;96935.00;;;23.99;100.00
56944;BME280;42848;42.524;12.052;2022-07-21T04:43:01;96933.78;;;24.00;100.00
56944;BME280;42848;42.524;12.052;2022-07-21T04:45:26;96931.81;;;24.01;100.00
56944;BME280;42848;42.524;12.052;2022-07-21T04:47:54;96935.88;;;23.75;100.00
56944;BME280;42848;42.524;12.052;2022-07-21T04:50:22;96932.59;;;24.01;100.00
56944;BME280;42848;42.524;12.052;2022-07-21T04:52:48;96932.56;;;24.08;100.00
56944;BME280;42848;42.524;12.052;2022-07-21T04:55:15;96933.41;;;23.98;100.00
56944;BME280;42848;42.524;12.052;2022-07-21T04:57:46;96942.44;;;24.17;100.00
56944;BME280;42848;42.524;12.052;2022-07-21T05:00:15;96937.25;;;24.26;100.00
56944;BME280;42848;42.524;12.052;2022-07-21T05:02:42;96931.75;;;24.11;100.00
56944;BME280;42848;42.524;12.052;2022-07-21T05:05:09;96941.19;;;24.32;100.00
56944;BME280;42848;42.524;12.052;2022-07-21T05:07:34;96945.75;;;23.87;100.00
56944;BME280;42848;42.524;12.052;2022-07-21T05:10:05;96938.03;;;24.23;100.00
56944;BME280;42848;42.524;12.052;2022-07-21T05:12:31;96942.44;;;24.17;100.00
56944;BME280;42848;42.524;12.052;2022-07-21T05:14:57;96939.66;;;24.24;100.00
56944;BME280;42848;42.524;12.052;2022-07-21T05:17:23;96942.88;;;24.08;100.00
56944;BME280;42848;42.524;12.052;2022-07-21T05:19:48;96945.19;;;24.20;100.00
56944;BME280;42848;42.524;12.052;2022-07-21T05:22:16;96941.22;;;24.25;100.00
56944;BME280;42848;42.524;12.052;2022-07-21T05:24:42;96939.59;;;24.38;100.00
56944;BME280;42848;42.524;12.052;2022-07-21T05:27:08;96941.22;;;24.25;100.00
56944;BME280;42848;42.524;12.052;2022-07-21T05:29:34;96940.81;;;24.26;100.00
56944;BME280;42848;42.524;12.052;2022-07-21T05:31:59;96954.66;;;24.37;100.00
56944;BME280;42848;42.524;12.052;2022-07-21T05:34:25;96947.53;;;24.29;100.00
56944;BME280;42848;42.524;12.052;2022-07-21T05:36:51;96948.16;;;24.61;100.00
56944;BME280;42848;42.524;12.052;2022-07-21T05:39:18;96949.78;;;24.55;100.00
56944;BME280;42848;42.524;12.052;2022-07-21T05:41:44;96948.09;;;24.72;100.00
56944;BME280;42848;42.524;12.052;2022-07-21T05:44:10;96941.13;;;24.46;100.00
56944;BME280;42848;42.524;12.052;2022-07-21T05:46:36;96952.19;;;24.53;100.00
56944;BME280;42848;42.524;12.052;2022-07-21T05:49:01;96948.44;;;24.78;100.00
56944;BME280;42848;42.524;12.052;2022-07-21T05:51:27;96954.00;;;24.78;100.00
56944;BME280;42848;42.524;12.052;2022-07-21T05:53:53;96953.03;;;25.02;100.00
56944;BME280;42848;42.524;12.052;2022-07-21T05:56:18;96952.22;;;25.05;100.00
56944;BME280;42848;42.524;12.052;2022-07-21T05:58:44;96959.56;;;25.30;100.00
56944;BME280;42848;42.524;12.052;2022-07-21T06:01:10;96960.88;;;25.14;100.00
56944;BME280;42848;42.524;12.052;2022-07-21T06:03:41;96957.25;;;25.24;100.00
56944;BME280;42848;42.524;12.052;2022-07-21T06:06:09;96953.56;;;25.35;100.00
56944;BME280;42848;42.524;12.052;2022-07-21T06:08:37;96949.59;;;25.36;100.00
56944;BME280;42848;42.524;12.052;2022-07-21T06:11:04;96950.69;;;25.42;100.00
56944;BME280;42848;42.524;12.052;2022-07-21T06:13:30;96953.88;;;25.44;100.00
56944;BME280;42848;42.524;12.052;2022-07-21T06:15:55;96957.41;;;25.48;100.00
56944;BME280;42848;42.524;12.052;2022-07-21T06:18:21;96956.19;;;25.49;100.00
56944;BME280;42848;42.524;12.052;2022-07-21T06:20:47;96955.28;;;25.59;100.00
56944;BME280;42848;42.524;12.052;2022-07-21T06:23:12;96958.47;;;25.61;100.00
56944;BME280;42848;42.524;12.052;2022-07-21T06:25:38;96961.63;;;25.63;100.00
56944;BME280;42848;42.524;12.052;2022-07-21T06:28:04;96964.75;;;25.72;100.00
56944;BME280;42848;42.524;12.052;2022-07-21T06:30:29;96960.38;;;25.71;100.00
56944;BME280;42848;42.524;12.052;2022-07-21T06:32:55;96966.72;;;25.72;100.00
56944;BME280;42848;42.524;12.052;2022-07-21T06:35:21;96961.47;;;25.81;100.00
56944;BME280;42848;42.524;12.052;2022-07-21T06:37:46;96971.69;;;25.88;100.00
56944;BME280;42848;42.524;12.052;2022-07-21T06:40:12;96958.34;;;25.75;100.00
56944;BME280;42848;42.524;12.052;2022-07-21T06:42:38;96965.28;;;25.94;100.00
56944;BME280;42848;42.524;12.052;2022-07-21T06:45:05;96962.06;;;25.96;100.00
56944;BME280;42848;42.524;12.052;2022-07-21T06:47:31;96966.81;;;25.99;100.00
56944;BME280;42848;42.524;12.052;2022-07-21T06:49:56;96967.94;;;25.67;100.00
56944;BME280;42848;42.524;12.052;2022-07-21T06:52:30;96965.41;;;25.84;100.00
56944;BME280;42848;42.524;12.052;2022-07-21T06:54:57;96972.38;;;25.99;100.00
56944;BME280;42848;42.524;12.052;2022-07-21T06:57:23;96969.25;;;26.27;100.00
56944;BME280;42848;42.524;12.052;2022-07-21T06:59:49;96974.75;;;26.34;100.00
56944;BME280;42848;42.524;12.052;2022-07-21T07:02:15;96969.53;;;26.36;100.00
56944;BME280;42848;42.524;12.052;2022-07-21T07:04:41;96975.44;;;26.42;97.05
56944;BME280;42848;42.524;12.052;2022-07-21T07:07:07;96978.66;;;26.41;96.40
56944;BME280;42848;42.524;12.052;2022-07-21T07:09:33;96974.56;;;26.49;94.91
56944;BME280;42848;42.524;12.052;2022-07-21T07:11:58;96971.00;;;26.48;96.04
56944;BME280;42848;42.524;12.052;2022-07-21T07:14:32;96969.00;;;26.76;100.00
56944;BME280;42848;42.524;12.052;2022-07-21T07:16:59;96975.25;;;26.83;90.45
56944;BME280;42848;42.524;12.052;2022-07-21T07:19:25;96975.03;;;26.44;90.69
56944;BME280;42848;42.524;12.052;2022-07-21T07:21:51;96968.97;;;26.52;87.95
56944;BME280;42848;42.524;12.052;2022-07-21T07:24:16;96966.38;;;26.65;87.70
56944;BME280;42848;42.524;12.052;2022-07-21T07:26:42;96971.69;;;27.10;87.06
56944;BME280;42848;42.524;12.052;2022-07-21T07:29:08;96965.22;;;26.89;85.52
56944;BME280;42848;42.524;12.052;2022-07-21T07:31:34;96964.38;;;26.65;87.37
56944;BME280;42848;42.524;12.052;2022-07-21T07:34:00;96968.28;;;26.72;87.01
56944;BME280;42848;42.524;12.052;2022-07-21T07:36:27;96965.78;;;26.77;83.45
56944;BME280;42848;42.524;12.052;2022-07-21T07:38:54;96973.59;;;26.89;79.53
56944;BME280;42848;42.524;12.052;2022-07-21T07:41:21;96962.38;;;27.43;81.10
56944;BME280;42848;42.524;12.052;2022-07-21T07:43:47;96962.78;;;27.42;79.38
56944;BME280;42848;42.524;12.052;2022-07-21T07:46:14;96966.13;;;27.57;75.57
56944;BME280;42848;42.524;12.052;2022-07-21T07:48:41;96968.91;;;27.57;75.26
56944;BME280;42848;42.524;12.052;2022-07-21T07:51:08;96964.28;;;27.70;73.93
56944;BME280;42848;42.524;12.052;2022-07-21T07:53:34;96975.94;;;27.41;76.33
56944;BME280;42848;42.524;12.052;2022-07-21T07:56:00;96966.19;;;27.96;73.66
56944;BME280;42848;42.524;12.052;2022-07-21T07:58:27;96959.69;;;27.83;72.01
56944;BME280;42848;42.524;12.052;2022-07-21T08:00:52;96957.88;;;27.73;70.84
56944;BME280;42848;42.524;12.052;2022-07-21T08:03:18;96962.97;;;27.98;73.27
56944;BME280;42848;42.524;12.052;2022-07-21T08:05:44;96955.25;;;28.05;71.36
56944;BME280;42848;42.524;12.052;2022-07-21T08:08:09;96958.91;;;28.02;72.68
56944;BME280;42848;42.524;12.052;2022-07-21T08:10:35;96955.19;;;27.89;72.73
56944;BME280;42848;42.524;12.052;2022-07-21T08:13:01;96958.13;;;28.02;71.42
56944;BME280;42848;42.524;12.052;2022-07-21T08:15:27;96953.19;;;28.10;71.94
56944;BME280;42848;42.524;12.052;2022-07-21T08:17:53;96959.91;;;28.32;70.43
56944;BME280;42848;42.524;12.052;2022-07-21T08:20:19;96958.25;;;28.34;66.50
56944;BME280;42848;42.524;12.052;2022-07-21T08:22:44;96958.00;;;28.25;67.18
56944;BME280;42848;42.524;12.052;2022-07-21T08:25:10;96959.91;;;28.32;67.77
56944;BME280;42848;42.524;12.052;2022-07-21T08:27:36;96958.81;;;28.26;69.96
56944;BME280;42848;42.524;12.052;2022-07-21T08:30:04;96963.84;;;28.71;64.76
56944;BME280;42848;42.524;12.052;2022-07-21T08:32:30;96959.84;;;28.72;64.73
56944;BME280;42848;42.524;12.052;2022-07-21T08:34:55;96957.13;;;28.68;64.33
56944;BME280;42848;42.524;12.052;2022-07-21T08:37:21;96955.63;;;28.08;65.75
56944;BME280;42848;42.524;12.052;2022-07-21T08:39:47;96952.88;;;28.24;64.07
56944;BME280;42848;42.524;12.052;2022-07-21T08:42:13;96958.88;;;28.42;63.97
56944;BME280;42848;42.524;12.052;2022-07-21T08:44:39;96955.97;;;29.02;60.95
56944;BME280;42848;42.524;12.052;2022-07-21T08:47:05;96955.69;;;28.60;60.87
56944;BME280;42848;42.524;12.052;2022-07-21T08:49:35;96956.22;;;28.55;62.52
56944;BME280;42848;42.524;12.052;2022-07-21T08:52:02;96948.56;;;28.75;61.44
56944;BME280;42848;42.524;12.052;2022-07-21T08:54:28;96957.22;;;28.65;60.87
56944;BME280;42848;42.524;12.052;2022-07-21T08:56:54;96953.09;;;29.22;58.91
56944;BME280;42848;42.524;12.052;2022-07-21T08:59:20;96949.06;;;29.23;58.29
56944;BME280;42848;42.524;12.052;2022-07-21T09:01:48;96954.47;;;28.97;56.94
56944;BME280;42848;42.524;12.052;2022-07-21T09:04:24;96949.59;;;29.17;57.33
56944;BME280;42848;42.524;12.052;2022-07-21T09:06:53;96956.38;;;29.16;56.93
56944;BME280;42848;42.524;12.052;2022-07-21T09:09:20;96947.13;;;29.03;57.99
56944;BME280;42848;42.524;12.052;2022-07-21T09:11:46;96961.94;;;28.84;57.91
56944;BME280;42848;42.524;12.052;2022-07-21T09:14:17;96956.41;;;29.49;57.28
56944;BME280;42848;42.524;12.052;2022-07-21T09:16:46;96960.06;;;29.91;54.30
56944;BME280;42848;42.524;12.052;2022-07-21T09:19:23;96959.19;;;29.49;53.63
56944;BME280;42848;42.524;12.052;2022-07-21T09:21:51;96956.75;;;29.18;52.44
56944;BME280;42848;42.524;12.052;2022-07-21T09:24:23;96956.38;;;29.16;53.11
56944;BME280;42848;42.524;12.052;2022-07-21T09:27:11;96961.34;;;29.41;51.17
56944;BME280;42848;42.524;12.052;2022-07-21T09:32:22;96968.97;;;29.41;48.70
56944;BME280;42848;42.524;12.052;2022-07-21T09:34:51;96969.59;;;29.32;47.90
56944;BME280;42848;42.524;12.052;2022-07-21T09:37:18;96962.47;;;29.44;47.25
56944;BME280;42848;42.524;12.052;2022-07-21T09:39:57;96969.94;;;29.51;46.64
56944;BME280;42848;42.524;12.052;2022-07-21T09:42:37;96964.63;;;29.56;46.34
56944;BME280;42848;42.524;12.052;2022-07-21T09:45:06;96964.84;;;29.62;46.40
56944;BME280;42848;42.524;12.052;2022-07-21T09:47:33;96958.13;;;29.59;45.80
56944;BME280;42848;42.524;12.052;2022-07-21T09:49:59;96959.19;;;29.65;45.19
56944;BME280;42848;42.524;12.052;2022-07-21T09:52:31;96962.50;;;29.60;43.81
56944;BME280;42848;42.524;12.052;2022-07-21T09:55:05;96955.94;;;29.67;43.07
56944;BME280;42848;42.524;12.052;2022-07-21T09:57:32;96957.22;;;29.79;42.53
56944;BME280;42848;42.524;12.052;2022-07-21T09:59:58;96951.78;;;29.71;41.02
56944;BME280;42848;42.524;12.052;2022-07-21T10:02:25;96952.50;;;29.76;45.14
56944;BME280;42848;42.524;12.052;2022-07-21T10:05:05;96953.31;;;29.89;44.54
56944;BME280;42848;42.524;12.052;2022-07-21T10:07:33;96944.84;;;29.92;44.41
56944;BME280;42848;42.524;12.052;2022-07-21T10:10:00;96950.44;;;29.92;44.40
56944;BME280;42848;42.524;12.052;2022-07-21T10:12:26;96952.25;;;29.99;40.51
56944;BME280;42848;42.524;12.052;2022-07-21T10:14:53;96951.34;;;30.18;40.29
56944;BME280;42848;42.524;12.052;2022-07-21T10:17:21;96953.03;;;30.28;42.65
56944;BME280;42848;42.524;12.052;2022-07-21T10:20:26;96951.44;;;30.15;43.69
56944;BME280;42848;42.524;12.052;2022-07-21T10:25:52;96944.91;;;30.47;38.73
56944;BME280;42848;42.524;12.052;2022-07-21T10:28:20;96944.44;;;30.61;38.61
56944;BME280;42848;42.524;12.052;2022-07-21T10:30:53;96950.63;;;30.56;39.50
56944;BME280;42848;42.524;12.052;2022-07-21T10:39:13;96951.19;;;30.89;35.54
56944;BME280;42848;42.524;12.052;2022-07-21T10:47:15;96941.13;;;30.92;35.25
56944;BME280;42848;42.524;12.052;2022-07-21T10:55:19;96937.75;;;30.97;33.49
56944;BME280;42848;42.524;12.052;2022-07-21T10:58:15;96943.22;;;31.13;33.06
56944;BME280;42848;42.524;12.052;2022-07-21T11:00:49;96944.25;;;31.06;34.61
56944;BME280;42848;42.524;12.052;2022-07-21T11:03:23;96943.69;;;30.86;36.06
56944;BME280;42848;42.524;12.052;2022-07-21T11:06:18;96930.75;;;31.39;35.35
56944;BME280;42848;42.524;12.052;2022-07-21T11:08:47;96936.38;;;31.14;35.51
56944;BME280;42848;42.524;12.052;2022-07-21T11:14:00;96935.03;;;31.31;36.12
56944;BME280;42848;42.524;12.052;2022-07-21T11:19:45;96925.75;;;31.22;37.22
56944;BME280;42848;42.524;12.052;2022-07-21T11:24:49;96921.31;;;31.46;39.39
56944;BME280;42848;42.524;12.052;2022-07-21T11:27:21;96918.94;;;31.45;40.10
56944;BME280;42848;42.524;12.052;2022-07-21T11:29:49;96914.72;;;31.62;41.10
56944;BME280;42848;42.524;12.052;2022-07-21T11:32:16;96917.34;;;31.56;41.15
56944;BME280;42848;42.524;12.052;2022-07-21T11:34:53;96912.63;;;31.53;41.19
56944;BME280;42848;42.524;12.052;2022-07-21T11:37:30;96901.38;;;31.66;41.07
56944;BME280;42848;42.524;12.052;2022-07-21T11:39:56;96900.28;;;31.85;40.69
56944;BME280;42848;42.524;12.052;2022-07-21T11:42:22;96896.50;;;32.01;41.23
56944;BME280;42848;42.524;12.052;2022-07-21T11:44:49;96895.88;;;32.28;40.59
56944;BME280;42848;42.524;12.052;2022-07-21T11:47:15;96901.47;;;32.19;40.92
56944;BME280;42848;42.524;12.052;2022-07-21T11:49:42;96901.72;;;32.12;40.32
56944;BME280;42848;42.524;12.052;2022-07-21T11:52:11;96890.06;;;32.44;39.63
56944;BME280;42848;42.524;12.052;2022-07-21T11:54:44;96885.09;;;32.89;39.12
56944;BME280;42848;42.524;12.052;2022-07-21T11:57:12;96879.94;;;32.25;38.77
56944;BME280;42848;42.524;12.052;2022-07-21T11:59:38;96879.78;;;31.97;39.57
56944;BME280;42848;42.524;12.052;2022-07-21T12:02:11;96876.31;;;31.93;40.13
56944;BME280;42848;42.524;12.052;2022-07-21T12:04:39;96883.69;;;31.78;40.15
56944;BME280;42848;42.524;12.052;2022-07-21T12:07:14;96882.56;;;32.19;42.22
56944;BME280;42848;42.524;12.052;2022-07-21T12:09:42;96879.72;;;32.10;46.19
56944;BME280;42848;42.524;12.052;2022-07-21T12:12:09;96876.34;;;32.24;45.13
56944;BME280;42848;42.524;12.052;2022-07-21T12:14:48;96879.47;;;32.48;53.44
56944;BME280;42848;42.524;12.052;2022-07-21T12:17:31;96874.16;;;32.50;44.75
56944;BME280;42848;42.524;12.052;2022-07-21T12:19:58;96880.38;;;32.45;45.29
56944;BME280;42848;42.524;12.052;2022-07-21T12:22:34;96875.81;;;32.79;56.16
56944;BME280;42848;42.524;12.052;2022-07-21T12:25:00;96876.75;;;32.76;59.07
56944;BME280;42848;42.524;12.052;2022-07-21T12:27:26;96880.09;;;32.84;58.54
56944;BME280;42848;42.524;12.052;2022-07-21T12:29:52;96874.53;;;32.71;60.79
56944;BME280;42848;42.524;12.052;2022-07-21T12:32:40;96863.00;;;32.78;61.45
56944;BME280;42848;42.524;12.052;2022-07-21T12:35:16;96867.91;;;32.46;62.53
56944;BME280;42848;42.524;12.052;2022-07-21T12:40:22;96862.28;;;32.46;62.96
56944;BME280;42848;42.524;12.052;2022-07-21T12:42:49;96862.91;;;32.50;61.65
56944;BME280;42848;42.524;12.052;2022-07-21T12:45:18;96870.97;;;33.20;59.09
56944;BME280;42848;42.524;12.052;2022-07-21T12:48:05;96850.81;;;33.49;58.73
56944;BME280;42848;42.524;12.052;2022-07-21T12:50:31;96862.66;;;32.67;60.44
56944;BME280;42848;42.524;12.052;2022-07-21T12:52:57;96860.03;;;32.72;61.01
56944;BME280;42848;42.524;12.052;2022-07-21T12:55:23;96858.09;;;33.00;50.19
56944;BME280;42848;42.524;12.052;2022-07-21T12:57:48;96864.03;;;32.93;53.64
56944;BME280;42848;42.524;12.052;2022-07-21T13:00:14;96860.94;;;33.28;57.81
56944;BME280;42848;42.524;12.052;2022-07-21T13:02:51;96870.31;;;33.16;58.74
56944;BME280;42848;42.524;12.052;2022-07-21T13:05:18;96869.97;;;33.04;58.50
56944;BME280;42848;42.524;12.052;2022-07-21T13:07:44;96863.88;;;33.06;58.39
56944;BME280;42848;42.524;12.052;2022-07-21T13:10:09;96862.13;;;32.90;58.81
56944;BME280;42848;42.524;12.052;2022-07-21T13:12:35;96862.06;;;32.81;58.98
56944;BME280;42848;42.524;12.052;2022-07-21T13:15:01;96858.44;;;33.21;56.84
56944;BME280;42848;42.524;12.052;2022-07-21T13:17:26;96857.53;;;33.51;57.14
56944;BME280;42848;42.524;12.052;2022-07-21T13:19:52;96860.03;;;33.95;54.50
56944;BME280;42848;42.524;12.052;2022-07-21T13:22:17;96853.78;;;33.63;55.32